sensor_id;sensor_type;location;lat;lon;timestamp;P1;durP1;ratioP1;P2;durP2;ratioP2
59161;SDS011;44942;48.936;8.260;2022-12-29T00:04:20;4.10;;;2.10;;
59161;SDS011;44942;48.936;8.260;2022-12-29T00:09:21;2.13;;;1.60;;
59161;SDS011;44942;48.936;8.260;2022-12-29T00:14:21;3.67;;;1.90;;
59161;SDS011;44942;48.936;8.260;2022-12-29T00:19:41;2.45;;;1.85;;
59161;SDS011;44942;48.936;8.260;2022-12-29T00:25:00;3.45;;;1.67;;
59161;SDS011;44942;48.936;8.260;2022-12-29T00:30:01;2.30;;;1.90;;
59161;SDS011;44942;48.936;8.260;2022-12-29T00:35:23;2.35;;;1.75;;
59161;SDS011;44942;48.936;8.260;2022-12-29T00:40:28;3.03;;;1.70;;
59161;SDS011;44942;48.936;8.260;2022-12-29T00:45:47;2.47;;;1.70;;
59161;SDS011;44942;48.936;8.260;2022-12-29T00:50:48;2.07;;;1.57;;
59161;SDS011;44942;48.936;8.260;2022-12-29T00:55:48;1.70;;;1.57;;
59161;SDS011;44942;48.936;8.260;2022-12-29T01:00:49;1.80;;;1.50;;
59161;SDS011;44942;48.936;8.260;2022-12-29T01:05:49;3.30;;;1.60;;
59161;SDS011;44942;48.936;8.260;2022-12-29T01:16:05;1.80;;;1.30;;
59161;SDS011;44942;48.936;8.260;2022-12-29T01:21:06;1.95;;;1.45;;
59161;SDS011;44942;48.936;8.260;2022-12-29T01:26:10;1.97;;;1.37;;
59161;SDS011;44942;48.936;8.260;2022-12-29T01:31:13;3.42;;;1.35;;
59161;SDS011;44942;48.936;8.260;2022-12-29T01:36:15;1.70;;;1.30;;
59161;SDS011;44942;48.936;8.260;2022-12-29T01:41:17;2.08;;;1.40;;
59161;SDS011;44942;48.936;8.260;2022-12-29T01:51:46;1.48;;;1.20;;
59161;SDS011;44942;48.936;8.260;2022-12-29T01:56:51;1.98;;;1.30;;
59161;SDS011;44942;48.936;8.260;2022-12-29T02:01:55;1.98;;;1.35;;
59161;SDS011;44942;48.936;8.260;2022-12-29T02:06:57;2.43;;;1.23;;
59161;SDS011;44942;48.936;8.260;2022-12-29T02:12:07;2.22;;;1.38;;
59161;SDS011;44942;48.936;8.260;2022-12-29T02:17:09;1.30;;;1.00;;
59161;SDS011;44942;48.936;8.260;2022-12-29T02:27:51;1.48;;;1.10;;
59161;SDS011;44942;48.936;8.260;2022-12-29T02:33:23;1.50;;;1.13;;
59161;SDS011;44942;48.936;8.260;2022-12-29T02:54:16;1.48;;;1.23;;
59161;SDS011;44942;48.936;8.260;2022-12-29T02:59:39;1.27;;;1.00;;
59161;SDS011;44942;48.936;8.260;2022-12-29T03:10:01;2.13;;;1.33;;
59161;SDS011;44942;48.936;8.260;2022-12-29T03:15:08;1.48;;;0.95;;
59161;SDS011;44942;48.936;8.260;2022-12-29T03:20:53;1.95;;;0.95;;
59161;SDS011;44942;48.936;8.260;2022-12-29T03:25:56;1.00;;;0.90;;
59161;SDS011;44942;48.936;8.260;2022-12-29T03:31:01;1.38;;;0.88;;
59161;SDS011;44942;48.936;8.260;2022-12-29T03:36:07;1.13;;;0.93;;
59161;SDS011;44942;48.936;8.260;2022-12-29T03:41:13;1.30;;;0.88;;
59161;SDS011;44942;48.936;8.260;2022-12-29T03:46:20;1.05;;;0.95;;
59161;SDS011;44942;48.936;8.260;2022-12-29T03:51:21;1.00;;;0.90;;
59161;SDS011;44942;48.936;8.260;2022-12-29T03:56:21;1.00;;;0.90;;
59161;SDS011;44942;48.936;8.260;2022-12-29T04:01:22;1.37;;;1.00;;
59161;SDS011;44942;48.936;8.260;2022-12-29T04:06:22;1.67;;;1.00;;
59161;SDS011;44942;48.936;8.260;2022-12-29T04:11:23;0.90;;;0.85;;
59161;SDS011;44942;48.936;8.260;2022-12-29T04:16:24;1.30;;;1.00;;
59161;SDS011;44942;48.936;8.260;2022-12-29T04:21:24;0.70;;;0.70;;
59161;SDS011;44942;48.936;8.260;2022-12-29T04:26:25;1.37;;;1.00;;
59161;SDS011;44942;48.936;8.260;2022-12-29T04:31:25;1.27;;;1.00;;
59161;SDS011;44942;48.936;8.260;2022-12-29T04:36:26;2.33;;;0.63;;
59161;SDS011;44942;48.936;8.260;2022-12-29T04:41:27;1.10;;;0.80;;
59161;SDS011;44942;48.936;8.260;2022-12-29T04:46:27;0.93;;;0.80;;
59161;SDS011;44942;48.936;8.260;2022-12-29T04:51:28;0.80;;;0.70;;
59161;SDS011;44942;48.936;8.260;2022-12-29T04:56:28;0.60;;;0.60;;
59161;SDS011;44942;48.936;8.260;2022-12-29T05:01:29;0.93;;;0.80;;
59161;SDS011;44942;48.936;8.260;2022-12-29T05:06:30;1.33;;;0.70;;
59161;SDS011;44942;48.936;8.260;2022-12-29T05:11:30;1.30;;;1.00;;
59161;SDS011;44942;48.936;8.260;2022-12-29T05:16:31;1.30;;;0.70;;
59161;SDS011;44942;48.936;8.260;2022-12-29T05:21:31;1.13;;;0.87;;
59161;SDS011;44942;48.936;8.260;2022-12-29T05:26:32;0.70;;;0.63;;
59161;SDS011;44942;48.936;8.260;2022-12-29T05:31:32;0.70;;;0.70;;
59161;SDS011;44942;48.936;8.260;2022-12-29T05:36:35;0.77;;;0.60;;
59161;SDS011;44942;48.936;8.260;2022-12-29T05:41:35;0.60;;;0.60;;
59161;SDS011;44942;48.936;8.260;2022-12-29T05:46:36;1.17;;;0.80;;
59161;SDS011;44942;48.936;8.260;2022-12-29T05:51:37;1.00;;;0.80;;
59161;SDS011;44942;48.936;8.260;2022-12-29T05:56:37;1.00;;;0.73;;
59161;SDS011;44942;48.936;8.260;2022-12-29T06:01:38;0.87;;;0.70;;
59161;SDS011;44942;48.936;8.260;2022-12-29T06:06:38;2.03;;;0.80;;
59161;SDS011;44942;48.936;8.260;2022-12-29T06:16:41;1.87;;;0.90;;
59161;SDS011;44942;48.936;8.260;2022-12-29T06:21:41;1.40;;;0.80;;
59161;SDS011;44942;48.936;8.260;2022-12-29T06:26:42;0.70;;;0.70;;
59161;SDS011;44942;48.936;8.260;2022-12-29T06:31:43;1.23;;;0.60;;
59161;SDS011;44942;48.936;8.260;2022-12-29T06:36:45;0.95;;;0.80;;
59161;SDS011;44942;48.936;8.260;2022-12-29T06:41:45;1.63;;;0.70;;
59161;SDS011;44942;48.936;8.260;2022-12-29T06:46:46;0.70;;;0.70;;
59161;SDS011;44942;48.936;8.260;2022-12-29T06:51:47;1.05;;;0.95;;
59161;SDS011;44942;48.936;8.260;2022-12-29T06:56:48;5.20;;;1.10;;
59161;SDS011;44942;48.936;8.260;2022-12-29T07:01:48;1.23;;;0.80;;
59161;SDS011;44942;48.936;8.260;2022-12-29T07:06:49;1.63;;;0.70;;
59161;SDS011;44942;48.936;8.260;2022-12-29T07:11:49;1.37;;;0.87;;
59161;SDS011;44942;48.936;8.260;2022-12-29T07:16:50;1.37;;;0.90;;
59161;SDS011;44942;48.936;8.260;2022-12-29T07:21:51;3.33;;;0.80;;
59161;SDS011;44942;48.936;8.260;2022-12-29T07:26:53;3.65;;;0.80;;
59161;SDS011;44942;48.936;8.260;2022-12-29T07:31:54;0.97;;;0.63;;
59161;SDS011;44942;48.936;8.260;2022-12-29T07:36:54;11.03;;;1.23;;
59161;SDS011;44942;48.936;8.260;2022-12-29T07:41:55;3.67;;;1.17;;
59161;SDS011;44942;48.936;8.260;2022-12-29T07:46:56;3.20;;;0.80;;
59161;SDS011;44942;48.936;8.260;2022-12-29T07:51:56;3.13;;;0.90;;
59161;SDS011;44942;48.936;8.260;2022-12-29T07:56:57;1.23;;;0.70;;
59161;SDS011;44942;48.936;8.260;2022-12-29T08:02:00;7.07;;;0.90;;
59161;SDS011;44942;48.936;8.260;2022-12-29T08:07:00;1.63;;;0.80;;
59161;SDS011;44942;48.936;8.260;2022-12-29T08:12:01;4.40;;;0.90;;
59161;SDS011;44942;48.936;8.260;2022-12-29T08:17:01;4.67;;;0.80;;
59161;SDS011;44942;48.936;8.260;2022-12-29T08:22:02;1.20;;;0.83;;
59161;SDS011;44942;48.936;8.260;2022-12-29T08:27:03;1.00;;;0.80;;
59161;SDS011;44942;48.936;8.260;2022-12-29T08:32:03;1.40;;;0.87;;
59161;SDS011;44942;48.936;8.260;2022-12-29T08:37:04;2.83;;;0.90;;
59161;SDS011;44942;48.936;8.260;2022-12-29T08:42:05;2.05;;;0.77;;
59161;SDS011;44942;48.936;8.260;2022-12-29T08:47:06;1.20;;;0.80;;
59161;SDS011;44942;48.936;8.260;2022-12-29T08:52:07;1.13;;;0.90;;
59161;SDS011;44942;48.936;8.260;2022-12-29T08:57:08;2.20;;;0.70;;
59161;SDS011;44942;48.936;8.260;2022-12-29T09:02:11;2.27;;;1.07;;
59161;SDS011;44942;48.936;8.260;2022-12-29T09:07:12;0.85;;;0.65;;
59161;SDS011;44942;48.936;8.260;2022-12-29T09:12:13;3.90;;;1.00;;
59161;SDS011;44942;48.936;8.260;2022-12-29T09:17:13;0.93;;;0.67;;
59161;SDS011;44942;48.936;8.260;2022-12-29T09:22:33;1.15;;;1.00;;
59161;SDS011;44942;48.936;8.260;2022-12-29T09:27:33;1.90;;;0.90;;
59161;SDS011;44942;48.936;8.260;2022-12-29T09:32:35;1.60;;;0.77;;
59161;SDS011;44942;48.936;8.260;2022-12-29T09:37:35;0.70;;;0.70;;
59161;SDS011;44942;48.936;8.260;2022-12-29T09:42:51;2.20;;;0.90;;
59161;SDS011;44942;48.936;8.260;2022-12-29T09:48:00;1.70;;;0.90;;
59161;SDS011;44942;48.936;8.260;2022-12-29T09:59:23;1.33;;;0.70;;
59161;SDS011;44942;48.936;8.260;2022-12-29T10:03:55;0.90;;;0.70;;
59161;SDS011;44942;48.936;8.260;2022-12-29T10:09:19;1.30;;;1.00;;
59161;SDS011;44942;48.936;8.260;2022-12-29T10:24:52;2.20;;;0.73;;
59161;SDS011;44942;48.936;8.260;2022-12-29T10:29:56;0.93;;;0.80;;
59161;SDS011;44942;48.936;8.260;2022-12-29T10:35:00;1.40;;;0.80;;
59161;SDS011;44942;48.936;8.260;2022-12-29T10:40:20;1.17;;;0.90;;
59161;SDS011;44942;48.936;8.260;2022-12-29T10:45:28;1.00;;;0.70;;
59161;SDS011;44942;48.936;8.260;2022-12-29T10:50:30;0.98;;;0.90;;
59161;SDS011;44942;48.936;8.260;2022-12-29T10:55:32;1.10;;;0.73;;
59161;SDS011;44942;48.936;8.260;2022-12-29T11:00:35;0.93;;;0.77;;
59161;SDS011;44942;48.936;8.260;2022-12-29T11:05:37;1.03;;;0.80;;
59161;SDS011;44942;48.936;8.260;2022-12-29T11:10:43;1.38;;;0.90;;
59161;SDS011;44942;48.936;8.260;2022-12-29T11:15:45;1.10;;;0.70;;
59161;SDS011;44942;48.936;8.260;2022-12-29T11:20:48;1.67;;;0.95;;
59161;SDS011;44942;48.936;8.260;2022-12-29T11:31:10;0.90;;;0.85;;
59161;SDS011;44942;48.936;8.260;2022-12-29T11:36:17;1.95;;;0.88;;
59161;SDS011;44942;48.936;8.260;2022-12-29T11:41:28;1.25;;;0.85;;
59161;SDS011;44942;48.936;8.260;2022-12-29T11:46:32;2.38;;;1.05;;
59161;SDS011;44942;48.936;8.260;2022-12-29T11:51:38;3.65;;;1.00;;
59161;SDS011;44942;48.936;8.260;2022-12-29T11:56:50;1.75;;;1.00;;
59161;SDS011;44942;48.936;8.260;2022-12-29T12:01:51;1.10;;;0.90;;
59161;SDS011;44942;48.936;8.260;2022-12-29T12:12:29;2.95;;;1.00;;
59161;SDS011;44942;48.936;8.260;2022-12-29T12:17:37;1.05;;;0.90;;
59161;SDS011;44942;48.936;8.260;2022-12-29T12:27:56;2.05;;;0.90;;
59161;SDS011;44942;48.936;8.260;2022-12-29T12:33:18;1.40;;;0.93;;
59161;SDS011;44942;48.936;8.260;2022-12-29T12:44:17;1.27;;;0.80;;
59161;SDS011;44942;48.936;8.260;2022-12-29T12:59:41;2.40;;;1.10;;
59161;SDS011;44942;48.936;8.260;2022-12-29T13:10:00;1.92;;;1.13;;
59161;SDS011;44942;48.936;8.260;2022-12-29T13:15:20;1.48;;;1.00;;
59161;SDS011;44942;48.936;8.260;2022-12-29T13:26:14;1.63;;;1.00;;
59161;SDS011;44942;48.936;8.260;2022-12-29T13:36:36;2.00;;;1.00;;
59161;SDS011;44942;48.936;8.260;2022-12-29T13:41:55;1.38;;;0.90;;
59161;SDS011;44942;48.936;8.260;2022-12-29T13:46:57;1.15;;;0.80;;
59161;SDS011;44942;48.936;8.260;2022-12-29T13:52:13;1.13;;;0.80;;
59161;SDS011;44942;48.936;8.260;2022-12-29T13:57:39;1.67;;;1.10;;
59161;SDS011;44942;48.936;8.260;2022-12-29T14:02:56;6.20;;;1.50;;
59161;SDS011;44942;48.936;8.260;2022-12-29T14:13:20;6.03;;;2.20;;
59161;SDS011;44942;48.936;8.260;2022-12-29T14:18:24;16.48;;;7.30;;
59161;SDS011;44942;48.936;8.260;2022-12-29T14:23:28;25.67;;;10.98;;
59161;SDS011;44942;48.936;8.260;2022-12-29T14:28:41;29.08;;;11.90;;
59161;SDS011;44942;48.936;8.260;2022-12-29T14:44:31;32.97;;;12.80;;
59161;SDS011;44942;48.936;8.260;2022-12-29T14:49:38;29.00;;;12.18;;
59161;SDS011;44942;48.936;8.260;2022-12-29T14:54:44;26.80;;;11.32;;
59161;SDS011;44942;48.936;8.260;2022-12-29T14:59:52;28.17;;;11.40;;
59161;SDS011;44942;48.936;8.260;2022-12-29T15:04:58;24.60;;;10.40;;
59161;SDS011;44942;48.936;8.260;2022-12-29T15:10:05;23.70;;;11.05;;
59161;SDS011;44942;48.936;8.260;2022-12-29T15:15:17;27.10;;;10.68;;
59161;SDS011;44942;48.936;8.260;2022-12-29T15:20:23;23.65;;;9.98;;
59161;SDS011;44942;48.936;8.260;2022-12-29T15:25:31;24.58;;;9.75;;
59161;SDS011;44942;48.936;8.260;2022-12-29T15:30:32;21.30;;;9.17;;
59161;SDS011;44942;48.936;8.260;2022-12-29T15:45:34;16.27;;;7.63;;
59161;SDS011;44942;48.936;8.260;2022-12-29T15:50:35;21.55;;;8.43;;
59161;SDS011;44942;48.936;8.260;2022-12-29T15:55:38;20.60;;;7.63;;
59161;SDS011;44942;48.936;8.260;2022-12-29T16:00:41;16.50;;;6.70;;
59161;SDS011;44942;48.936;8.260;2022-12-29T16:06:06;13.95;;;6.70;;
59161;SDS011;44942;48.936;8.260;2022-12-29T16:11:26;16.15;;;7.10;;
59161;SDS011;44942;48.936;8.260;2022-12-29T16:16:37;15.70;;;7.05;;
59161;SDS011;44942;48.936;8.260;2022-12-29T16:21:40;13.35;;;6.28;;
59161;SDS011;44942;48.936;8.260;2022-12-29T16:26:48;11.63;;;6.10;;
59161;SDS011;44942;48.936;8.260;2022-12-29T16:31:56;13.43;;;6.05;;
59161;SDS011;44942;48.936;8.260;2022-12-29T16:47:38;12.50;;;5.70;;
59161;SDS011;44942;48.936;8.260;2022-12-29T16:52:39;12.27;;;5.80;;
59161;SDS011;44942;48.936;8.260;2022-12-29T16:57:40;11.20;;;5.17;;
59161;SDS011;44942;48.936;8.260;2022-12-29T17:02:43;11.23;;;5.20;;
59161;SDS011;44942;48.936;8.260;2022-12-29T17:07:44;11.40;;;5.63;;
59161;SDS011;44942;48.936;8.260;2022-12-29T17:12:47;13.07;;;5.78;;
59161;SDS011;44942;48.936;8.260;2022-12-29T17:17:48;12.35;;;5.68;;
59161;SDS011;44942;48.936;8.260;2022-12-29T17:22:51;10.90;;;5.63;;
59161;SDS011;44942;48.936;8.260;2022-12-29T17:27:54;10.75;;;5.43;;
59161;SDS011;44942;48.936;8.260;2022-12-29T17:38:09;8.85;;;5.10;;
59161;SDS011;44942;48.936;8.260;2022-12-29T17:43:19;8.20;;;4.55;;
59161;SDS011;44942;48.936;8.260;2022-12-29T17:48:19;9.27;;;4.47;;
59161;SDS011;44942;48.936;8.260;2022-12-29T17:53:22;9.13;;;4.38;;
59161;SDS011;44942;48.936;8.260;2022-12-29T17:58:28;8.45;;;4.80;;
59161;SDS011;44942;48.936;8.260;2022-12-29T18:03:31;11.35;;;4.57;;
59161;SDS011;44942;48.936;8.260;2022-12-29T18:08:34;7.88;;;4.57;;
59161;SDS011;44942;48.936;8.260;2022-12-29T18:13:35;6.60;;;4.00;;
59161;SDS011;44942;48.936;8.260;2022-12-29T18:18:35;5.70;;;3.90;;
59161;SDS011;44942;48.936;8.260;2022-12-29T18:23:36;6.00;;;3.60;;
59161;SDS011;44942;48.936;8.260;2022-12-29T18:28:38;7.88;;;3.95;;
59161;SDS011;44942;48.936;8.260;2022-12-29T18:33:39;6.67;;;3.90;;
59161;SDS011;44942;48.936;8.260;2022-12-29T18:38:40;7.73;;;3.90;;
59161;SDS011;44942;48.936;8.260;2022-12-29T18:43:41;7.38;;;3.53;;
59161;SDS011;44942;48.936;8.260;2022-12-29T18:48:41;6.85;;;3.55;;
59161;SDS011;44942;48.936;8.260;2022-12-29T18:53:42;5.20;;;3.40;;
59161;SDS011;44942;48.936;8.260;2022-12-29T18:58:43;7.57;;;3.60;;
59161;SDS011;44942;48.936;8.260;2022-12-29T19:03:44;5.30;;;3.40;;
59161;SDS011;44942;48.936;8.260;2022-12-29T19:08:44;6.83;;;3.53;;
59161;SDS011;44942;48.936;8.260;2022-12-29T19:13:45;5.73;;;3.60;;
59161;SDS011;44942;48.936;8.260;2022-12-29T19:18:46;5.28;;;3.35;;
59161;SDS011;44942;48.936;8.260;2022-12-29T19:23:48;5.45;;;3.13;;
59161;SDS011;44942;48.936;8.260;2022-12-29T19:28:48;5.47;;;3.40;;
59161;SDS011;44942;48.936;8.260;2022-12-29T19:33:49;4.43;;;3.07;;
59161;SDS011;44942;48.936;8.260;2022-12-29T19:38:49;4.50;;;2.90;;
59161;SDS011;44942;48.936;8.260;2022-12-29T19:43:50;3.60;;;2.73;;
59161;SDS011;44942;48.936;8.260;2022-12-29T19:48:51;4.77;;;3.20;;
59161;SDS011;44942;48.936;8.260;2022-12-29T19:53:53;5.60;;;3.20;;
59161;SDS011;44942;48.936;8.260;2022-12-29T19:58:54;5.13;;;2.92;;
59161;SDS011;44942;48.936;8.260;2022-12-29T20:03:56;4.50;;;2.58;;
59161;SDS011;44942;48.936;8.260;2022-12-29T20:08:57;4.80;;;2.87;;
59161;SDS011;44942;48.936;8.260;2022-12-29T20:14:00;3.70;;;2.67;;
59161;SDS011;44942;48.936;8.260;2022-12-29T20:19:00;3.65;;;2.45;;
59161;SDS011;44942;48.936;8.260;2022-12-29T20:24:03;5.57;;;2.58;;
59161;SDS011;44942;48.936;8.260;2022-12-29T20:29:04;4.85;;;2.35;;
59161;SDS011;44942;48.936;8.260;2022-12-29T20:34:04;7.40;;;2.50;;
59161;SDS011;44942;48.936;8.260;2022-12-29T20:39:08;6.32;;;2.72;;
59161;SDS011;44942;48.936;8.260;2022-12-29T20:44:12;9.02;;;2.45;;
59161;SDS011;44942;48.936;8.260;2022-12-29T20:49:13;10.13;;;2.60;;
59161;SDS011;44942;48.936;8.260;2022-12-29T20:54:14;4.23;;;2.60;;
59161;SDS011;44942;48.936;8.260;2022-12-29T20:59:14;8.15;;;2.75;;
59161;SDS011;44942;48.936;8.260;2022-12-29T21:04:15;6.30;;;2.67;;
59161;SDS011;44942;48.936;8.260;2022-12-29T21:09:16;11.83;;;2.80;;
59161;SDS011;44942;48.936;8.260;2022-12-29T21:14:16;8.23;;;2.57;;
59161;SDS011;44942;48.936;8.260;2022-12-29T21:19:17;12.83;;;2.63;;
59161;SDS011;44942;48.936;8.260;2022-12-29T21:24:17;8.50;;;2.47;;
59161;SDS011;44942;48.936;8.260;2022-12-29T21:29:18;6.20;;;2.00;;
59161;SDS011;44942;48.936;8.260;2022-12-29T21:34:19;3.43;;;2.10;;
59161;SDS011;44942;48.936;8.260;2022-12-29T21:39:19;5.77;;;2.40;;
59161;SDS011;44942;48.936;8.260;2022-12-29T21:44:20;5.40;;;1.90;;
59161;SDS011;44942;48.936;8.260;2022-12-29T21:49:39;4.05;;;2.10;;
59161;SDS011;44942;48.936;8.260;2022-12-29T21:54:40;4.97;;;2.00;;
59161;SDS011;44942;48.936;8.260;2022-12-29T21:59:59;3.38;;;1.95;;
59161;SDS011;44942;48.936;8.260;2022-12-29T22:05:18;2.75;;;1.63;;
59161;SDS011;44942;48.936;8.260;2022-12-29T22:10:38;5.70;;;2.25;;
59161;SDS011;44942;48.936;8.260;2022-12-29T22:16:05;5.13;;;2.00;;
59161;SDS011;44942;48.936;8.260;2022-12-29T22:21:08;3.05;;;1.80;;
59161;SDS011;44942;48.936;8.260;2022-12-29T22:26:10;3.20;;;2.10;;
59161;SDS011;44942;48.936;8.260;2022-12-29T22:31:20;3.13;;;1.95;;
59161;SDS011;44942;48.936;8.260;2022-12-29T22:36:26;5.78;;;2.05;;
59161;SDS011;44942;48.936;8.260;2022-12-29T22:41:27;3.38;;;1.80;;
59161;SDS011;44942;48.936;8.260;2022-12-29T22:46:27;4.20;;;1.80;;
59161;SDS011;44942;48.936;8.260;2022-12-29T22:51:28;2.70;;;1.90;;
59161;SDS011;44942;48.936;8.260;2022-12-29T22:56:29;3.10;;;1.80;;
59161;SDS011;44942;48.936;8.260;2022-12-29T23:01:29;2.20;;;1.60;;
59161;SDS011;44942;48.936;8.260;2022-12-29T23:06:30;4.77;;;1.73;;
59161;SDS011;44942;48.936;8.260;2022-12-29T23:11:30;2.57;;;1.50;;
59161;SDS011;44942;48.936;8.260;2022-12-29T23:16:31;4.68;;;1.65;;
59161;SDS011;44942;48.936;8.260;2022-12-29T23:21:32;1.93;;;1.40;;
59161;SDS011;44942;48.936;8.260;2022-12-29T23:26:34;3.57;;;1.50;;
59161;SDS011;44942;48.936;8.260;2022-12-29T23:31:35;1.92;;;1.40;;
59161;SDS011;44942;48.936;8.260;2022-12-29T23:36:36;3.63;;;1.52;;
59161;SDS011;44942;48.936;8.260;2022-12-29T23:41:38;1.75;;;1.35;;
59161;SDS011;44942;48.936;8.260;2022-12-29T23:46:38;2.37;;;1.50;;
59161;SDS011;44942;48.936;8.260;2022-12-29T23:56:40;3.00;;;1.40;;
